sensor_id;sensor_type;location;lat;lon;timestamp;temperature;humidity
29255;DHT22;16277;48.890;2.306;2023-03-24T00:13:19;16.70;99.90
29255;DHT22;16277;48.890;2.306;2023-03-24T00:28:24;16.60;99.90
29255;DHT22;16277;48.890;2.306;2023-03-24T00:43:29;16.80;99.90
29255;DHT22;16277;48.890;2.306;2023-03-24T00:58:33;16.40;99.90
29255;DHT22;16277;48.890;2.306;2023-03-24T01:13:38;16.50;99.90
29255;DHT22;16277;48.890;2.306;2023-03-24T01:28:43;16.40;99.90
29255;DHT22;16277;48.890;2.306;2023-03-24T01:43:47;16.60;99.90
29255;DHT22;16277;48.890;2.306;2023-03-24T01:58:55;16.40;99.90
29255;DHT22;16277;48.890;2.306;2023-03-24T02:14:08;16.60;99.90
29255;DHT22;16277;48.890;2.306;2023-03-24T02:29:53;16.40;99.90
29255;DHT22;16277;48.890;2.306;2023-03-24T02:45:10;16.10;99.90
29255;DHT22;16277;48.890;2.306;2023-03-24T03:00:24;16.20;99.90
29255;DHT22;16277;48.890;2.306;2023-03-24T03:15:43;16.20;99.90
29255;DHT22;16277;48.890;2.306;2023-03-24T03:30:53;15.70;99.90
29255;DHT22;16277;48.890;2.306;2023-03-24T03:46:03;15.70;99.90
29255;DHT22;16277;48.890;2.306;2023-03-24T04:01:14;15.60;99.90
29255;DHT22;16277;48.890;2.306;2023-03-24T04:16:50;15.40;99.90
29255;DHT22;16277;48.890;2.306;2023-03-24T04:32:08;15.70;99.90
29255;DHT22;16277;48.890;2.306;2023-03-24T04:47:19;15.60;99.90
29255;DHT22;16277;48.890;2.306;2023-03-24T05:02:51;15.40;99.90
29255;DHT22;16277;48.890;2.306;2023-03-24T05:18:01;15.20;99.90
29255;DHT22;16277;48.890;2.306;2023-03-24T05:33:06;15.10;99.90
29255;DHT22;16277;48.890;2.306;2023-03-24T05:59:17;15.20;99.90
29255;DHT22;16277;48.890;2.306;2023-03-24T06:14:49;15.00;99.90
29255;DHT22;16277;48.890;2.306;2023-03-24T06:29:54;15.00;99.90
29255;DHT22;16277;48.890;2.306;2023-03-24T06:44:59;14.70;99.90
29255;DHT22;16277;48.890;2.306;2023-03-24T07:00:06;14.90;99.90
29255;DHT22;16277;48.890;2.306;2023-03-24T07:15:25;14.50;99.90
29255;DHT22;16277;48.890;2.306;2023-03-24T07:30:30;14.70;99.90
29255;DHT22;16277;48.890;2.306;2023-03-24T07:45:55;14.80;99.90
29255;DHT22;16277;48.890;2.306;2023-03-24T08:01:05;14.90;99.90
29255;DHT22;16277;48.890;2.306;2023-03-24T08:16:17;14.90;99.90
29255;DHT22;16277;48.890;2.306;2023-03-24T08:31:23;14.80;99.90
29255;DHT22;16277;48.890;2.306;2023-03-24T08:46:28;15.00;99.90
29255;DHT22;16277;48.890;2.306;2023-03-24T09:01:33;14.90;99.90
29255;DHT22;16277;48.890;2.306;2023-03-24T09:16:38;15.50;99.90
29255;DHT22;16277;48.890;2.306;2023-03-24T09:31:44;15.50;99.90
29255;DHT22;16277;48.890;2.306;2023-03-24T09:46:51;15.70;99.90
29255;DHT22;16277;48.890;2.306;2023-03-24T10:01:57;15.60;99.90
29255;DHT22;16277;48.890;2.306;2023-03-24T10:17:07;15.90;99.90
29255;DHT22;16277;48.890;2.306;2023-03-24T10:32:18;16.00;99.90
29255;DHT22;16277;48.890;2.306;2023-03-24T10:47:27;16.20;99.90
29255;DHT22;16277;48.890;2.306;2023-03-24T11:02:35;16.50;99.90
29255;DHT22;16277;48.890;2.306;2023-03-24T11:17:41;16.40;99.90
29255;DHT22;16277;48.890;2.306;2023-03-24T11:32:46;16.80;99.90
29255;DHT22;16277;48.890;2.306;2023-03-24T11:47:54;17.00;99.90
29255;DHT22;16277;48.890;2.306;2023-03-24T12:03:17;16.60;99.90
29255;DHT22;16277;48.890;2.306;2023-03-24T12:33:58;16.50;99.90
29255;DHT22;16277;48.890;2.306;2023-03-24T12:49:21;15.70;99.90
29255;DHT22;16277;48.890;2.306;2023-03-24T13:04:32;16.70;99.90
29255;DHT22;16277;48.890;2.306;2023-03-24T13:19:40;17.40;99.90
29255;DHT22;16277;48.890;2.306;2023-03-24T13:34:48;17.10;99.90
29255;DHT22;16277;48.890;2.306;2023-03-24T13:49:59;17.00;99.90
29255;DHT22;16277;48.890;2.306;2023-03-24T14:05:08;18.10;99.90
29255;DHT22;16277;48.890;2.306;2023-03-24T14:20:26;19.10;99.90
29255;DHT22;16277;48.890;2.306;2023-03-24T14:35:35;20.60;99.40
29255;DHT22;16277;48.890;2.306;2023-03-24T14:50:45;24.60;90.10
29255;DHT22;16277;48.890;2.306;2023-03-24T15:05:50;26.40;81.20
29255;DHT22;16277;48.890;2.306;2023-03-24T15:20:55;25.10;80.60
29255;DHT22;16277;48.890;2.306;2023-03-24T15:36:00;21.00;90.50
29255;DHT22;16277;48.890;2.306;2023-03-24T15:51:07;19.40;93.60
29255;DHT22;16277;48.890;2.306;2023-03-24T16:06:20;19.10;93.20
29255;DHT22;16277;48.890;2.306;2023-03-24T16:21:29;16.90;99.90
29255;DHT22;16277;48.890;2.306;2023-03-24T16:36:34;18.80;97.40
29255;DHT22;16277;48.890;2.306;2023-03-24T16:51:39;20.20;96.60
29255;DHT22;16277;48.890;2.306;2023-03-24T17:06:45;19.30;97.00
29255;DHT22;16277;48.890;2.306;2023-03-24T17:21:57;18.40;98.00
29255;DHT22;16277;48.890;2.306;2023-03-24T17:37:02;17.10;99.90
29255;DHT22;16277;48.890;2.306;2023-03-24T17:52:08;15.90;99.90
29255;DHT22;16277;48.890;2.306;2023-03-24T18:07:13;14.40;99.90
29255;DHT22;16277;48.890;2.306;2023-03-24T18:22:18;14.50;99.90
29255;DHT22;16277;48.890;2.306;2023-03-24T18:37:22;14.40;99.90
29255;DHT22;16277;48.890;2.306;2023-03-24T18:52:27;14.70;99.90
29255;DHT22;16277;48.890;2.306;2023-03-24T19:07:32;15.10;99.90
29255;DHT22;16277;48.890;2.306;2023-03-24T19:22:39;14.70;99.90
29255;DHT22;16277;48.890;2.306;2023-03-24T19:37:44;14.40;99.90
29255;DHT22;16277;48.890;2.306;2023-03-24T19:52:49;14.40;99.90
29255;DHT22;16277;48.890;2.306;2023-03-24T20:07:53;14.20;99.90
29255;DHT22;16277;48.890;2.306;2023-03-24T20:23:02;14.40;99.90
29255;DHT22;16277;48.890;2.306;2023-03-24T20:38:06;14.30;99.90
29255;DHT22;16277;48.890;2.306;2023-03-24T20:53:11;14.50;99.90
29255;DHT22;16277;48.890;2.306;2023-03-24T21:08:16;14.20;99.90
29255;DHT22;16277;48.890;2.306;2023-03-24T21:23:20;14.10;99.90
29255;DHT22;16277;48.890;2.306;2023-03-24T21:38:25;13.70;99.90
29255;DHT22;16277;48.890;2.306;2023-03-24T21:53:30;13.40;99.90
29255;DHT22;16277;48.890;2.306;2023-03-24T22:08:37;13.40;99.90
29255;DHT22;16277;48.890;2.306;2023-03-24T22:23:45;13.60;99.90
29255;DHT22;16277;48.890;2.306;2023-03-24T22:38:50;13.30;99.90
29255;DHT22;16277;48.890;2.306;2023-03-24T22:53:55;13.30;99.90
29255;DHT22;16277;48.890;2.306;2023-03-24T23:09:00;13.40;99.90
29255;DHT22;16277;48.890;2.306;2023-03-24T23:24:04;13.10;99.90
29255;DHT22;16277;48.890;2.306;2023-03-24T23:39:09;13.20;99.90
29255;DHT22;16277;48.890;2.306;2023-03-24T23:54:14;13.00;99.90
